sensor_id;sensor_type;location;lat;lon;timestamp;temperature;humidity
15997;DHT22;8103;51.340;12.326;2022-08-21T00:00:26;18.70;99.90
15997;DHT22;8103;51.340;12.326;2022-08-21T00:03:03;18.70;99.90
15997;DHT22;8103;51.340;12.326;2022-08-21T00:05:32;18.70;99.90
15997;DHT22;8103;51.340;12.326;2022-08-21T00:07:59;18.70;99.90
15997;DHT22;8103;51.340;12.326;2022-08-21T00:10:26;18.50;99.90
15997;DHT22;8103;51.340;12.326;2022-08-21T00:12:53;18.70;99.90
15997;DHT22;8103;51.340;12.326;2022-08-21T00:15:25;18.60;99.90
15997;DHT22;8103;51.340;12.326;2022-08-21T00:17:54;18.60;99.90
15997;DHT22;8103;51.340;12.326;2022-08-21T00:20:22;18.60;99.90
15997;DHT22;8103;51.340;12.326;2022-08-21T00:22:49;18.60;99.90
15997;DHT22;8103;51.340;12.326;2022-08-21T00:25:17;18.60;99.90
15997;DHT22;8103;51.340;12.326;2022-08-21T00:27:49;18.60;99.90
15997;DHT22;8103;51.340;12.326;2022-08-21T00:30:17;18.70;99.90
15997;DHT22;8103;51.340;12.326;2022-08-21T00:32:45;18.70;99.90
15997;DHT22;8103;51.340;12.326;2022-08-21T00:35:15;18.70;99.90
15997;DHT22;8103;51.340;12.326;2022-08-21T00:37:43;18.70;99.90
15997;DHT22;8103;51.340;12.326;2022-08-21T00:40:14;18.70;99.90
15997;DHT22;8103;51.340;12.326;2022-08-21T00:42:43;18.70;99.90
15997;DHT22;8103;51.340;12.326;2022-08-21T00:45:11;18.70;99.90
15997;DHT22;8103;51.340;12.326;2022-08-21T00:47:38;18.90;99.90
15997;DHT22;8103;51.340;12.326;2022-08-21T00:50:07;18.60;99.90
15997;DHT22;8103;51.340;12.326;2022-08-21T00:52:36;18.60;99.90
15997;DHT22;8103;51.340;12.326;2022-08-21T00:55:07;18.60;99.90
15997;DHT22;8103;51.340;12.326;2022-08-21T00:57:40;18.60;99.90
15997;DHT22;8103;51.340;12.326;2022-08-21T01:00:12;18.50;99.90
15997;DHT22;8103;51.340;12.326;2022-08-21T01:02:40;18.50;99.90
15997;DHT22;8103;51.340;12.326;2022-08-21T01:05:08;18.50;99.90
15997;DHT22;8103;51.340;12.326;2022-08-21T01:07:35;18.60;99.90
15997;DHT22;8103;51.340;12.326;2022-08-21T01:10:03;18.60;99.90
15997;DHT22;8103;51.340;12.326;2022-08-21T01:12:32;18.60;99.90
15997;DHT22;8103;51.340;12.326;2022-08-21T01:15:00;18.70;99.90
15997;DHT22;8103;51.340;12.326;2022-08-21T01:17:27;18.70;99.90
15997;DHT22;8103;51.340;12.326;2022-08-21T01:19:58;18.70;99.90
15997;DHT22;8103;51.340;12.326;2022-08-21T01:22:26;18.70;99.90
15997;DHT22;8103;51.340;12.326;2022-08-21T01:24:53;18.70;99.90
15997;DHT22;8103;51.340;12.326;2022-08-21T01:27:19;18.70;99.90
15997;DHT22;8103;51.340;12.326;2022-08-21T01:29:58;18.70;99.90
15997;DHT22;8103;51.340;12.326;2022-08-21T01:32:26;18.70;99.90
15997;DHT22;8103;51.340;12.326;2022-08-21T01:34:53;18.80;99.90
15997;DHT22;8103;51.340;12.326;2022-08-21T01:37:21;18.80;99.90
15997;DHT22;8103;51.340;12.326;2022-08-21T01:39:48;18.80;99.90
15997;DHT22;8103;51.340;12.326;2022-08-21T01:42:15;18.80;99.90
15997;DHT22;8103;51.340;12.326;2022-08-21T01:44:43;18.80;99.90
15997;DHT22;8103;51.340;12.326;2022-08-21T01:47:12;18.80;99.90
15997;DHT22;8103;51.340;12.326;2022-08-21T01:49:40;18.80;99.90
15997;DHT22;8103;51.340;12.326;2022-08-21T01:52:07;18.80;99.90
15997;DHT22;8103;51.340;12.326;2022-08-21T01:54:36;18.80;99.90
15997;DHT22;8103;51.340;12.326;2022-08-21T01:57:03;18.70;99.90
15997;DHT22;8103;51.340;12.326;2022-08-21T01:59:31;18.70;99.90
15997;DHT22;8103;51.340;12.326;2022-08-21T02:01:57;18.80;99.90
15997;DHT22;8103;51.340;12.326;2022-08-21T02:04:24;18.70;99.90
15997;DHT22;8103;51.340;12.326;2022-08-21T02:06:51;18.70;99.90
15997;DHT22;8103;51.340;12.326;2022-08-21T02:09:18;18.70;99.90
15997;DHT22;8103;51.340;12.326;2022-08-21T02:11:45;18.70;99.90
15997;DHT22;8103;51.340;12.326;2022-08-21T02:14:14;18.60;99.90
15997;DHT22;8103;51.340;12.326;2022-08-21T02:16:42;18.60;99.90
15997;DHT22;8103;51.340;12.326;2022-08-21T02:19:10;18.60;99.90
15997;DHT22;8103;51.340;12.326;2022-08-21T02:21:37;18.60;99.90
15997;DHT22;8103;51.340;12.326;2022-08-21T02:24:05;18.60;99.90
15997;DHT22;8103;51.340;12.326;2022-08-21T02:26:32;18.60;99.90
15997;DHT22;8103;51.340;12.326;2022-08-21T02:28:59;18.60;99.90
15997;DHT22;8103;51.340;12.326;2022-08-21T02:31:26;18.60;99.90
15997;DHT22;8103;51.340;12.326;2022-08-21T02:33:53;18.60;99.90
15997;DHT22;8103;51.340;12.326;2022-08-21T02:36:20;18.60;99.90
15997;DHT22;8103;51.340;12.326;2022-08-21T02:38:47;18.60;99.90
15997;DHT22;8103;51.340;12.326;2022-08-21T02:41:18;18.60;99.90
15997;DHT22;8103;51.340;12.326;2022-08-21T02:43:46;18.50;99.90
15997;DHT22;8103;51.340;12.326;2022-08-21T02:46:15;18.60;99.90
15997;DHT22;8103;51.340;12.326;2022-08-21T02:48:42;18.50;99.90
15997;DHT22;8103;51.340;12.326;2022-08-21T02:51:18;18.50;99.90
15997;DHT22;8103;51.340;12.326;2022-08-21T02:53:46;18.50;99.90
15997;DHT22;8103;51.340;12.326;2022-08-21T02:56:15;18.50;99.90
15997;DHT22;8103;51.340;12.326;2022-08-21T02:58:46;18.40;99.90
15997;DHT22;8103;51.340;12.326;2022-08-21T03:01:13;18.40;99.90
15997;DHT22;8103;51.340;12.326;2022-08-21T03:03:42;18.40;99.90
15997;DHT22;8103;51.340;12.326;2022-08-21T03:06:11;18.30;99.90
15997;DHT22;8103;51.340;12.326;2022-08-21T03:08:38;18.30;99.90
15997;DHT22;8103;51.340;12.326;2022-08-21T03:11:07;18.30;99.90
15997;DHT22;8103;51.340;12.326;2022-08-21T03:13:34;18.20;99.90
15997;DHT22;8103;51.340;12.326;2022-08-21T03:16:01;18.20;99.90
15997;DHT22;8103;51.340;12.326;2022-08-21T03:18:27;18.20;99.90
15997;DHT22;8103;51.340;12.326;2022-08-21T03:20:54;18.10;99.90
15997;DHT22;8103;51.340;12.326;2022-08-21T03:23:21;18.10;99.90
15997;DHT22;8103;51.340;12.326;2022-08-21T03:25:48;18.10;99.90
15997;DHT22;8103;51.340;12.326;2022-08-21T03:28:18;18.10;99.90
15997;DHT22;8103;51.340;12.326;2022-08-21T03:30:47;18.20;99.90
15997;DHT22;8103;51.340;12.326;2022-08-21T03:33:15;18.20;99.90
15997;DHT22;8103;51.340;12.326;2022-08-21T03:35:44;18.20;99.90
15997;DHT22;8103;51.340;12.326;2022-08-21T03:38:12;18.20;99.90
15997;DHT22;8103;51.340;12.326;2022-08-21T03:40:41;18.20;99.90
15997;DHT22;8103;51.340;12.326;2022-08-21T03:43:08;18.30;99.90
15997;DHT22;8103;51.340;12.326;2022-08-21T03:45:36;18.30;99.90
15997;DHT22;8103;51.340;12.326;2022-08-21T03:48:04;18.30;99.90
15997;DHT22;8103;51.340;12.326;2022-08-21T03:50:37;18.30;99.90
15997;DHT22;8103;51.340;12.326;2022-08-21T03:53:06;18.30;99.90
15997;DHT22;8103;51.340;12.326;2022-08-21T03:55:33;18.30;99.90
15997;DHT22;8103;51.340;12.326;2022-08-21T03:58:00;18.30;99.90
15997;DHT22;8103;51.340;12.326;2022-08-21T04:00:43;18.20;99.90
15997;DHT22;8103;51.340;12.326;2022-08-21T04:03:12;18.20;99.90
15997;DHT22;8103;51.340;12.326;2022-08-21T04:05:46;18.20;99.90
15997;DHT22;8103;51.340;12.326;2022-08-21T04:08:14;18.20;99.90
15997;DHT22;8103;51.340;12.326;2022-08-21T04:10:42;18.20;99.90
15997;DHT22;8103;51.340;12.326;2022-08-21T04:13:10;18.20;99.90
15997;DHT22;8103;51.340;12.326;2022-08-21T04:15:37;18.20;99.90
15997;DHT22;8103;51.340;12.326;2022-08-21T04:18:05;18.20;99.90
15997;DHT22;8103;51.340;12.326;2022-08-21T04:20:32;18.20;99.90
15997;DHT22;8103;51.340;12.326;2022-08-21T04:22:59;18.20;99.90
15997;DHT22;8103;51.340;12.326;2022-08-21T04:25:26;18.30;99.90
15997;DHT22;8103;51.340;12.326;2022-08-21T04:27:53;18.20;99.90
15997;DHT22;8103;51.340;12.326;2022-08-21T04:30:20;18.20;99.90
15997;DHT22;8103;51.340;12.326;2022-08-21T04:32:53;18.20;99.90
15997;DHT22;8103;51.340;12.326;2022-08-21T04:35:21;18.20;99.90
15997;DHT22;8103;51.340;12.326;2022-08-21T04:37:49;18.20;99.90
15997;DHT22;8103;51.340;12.326;2022-08-21T04:40:17;18.20;99.90
15997;DHT22;8103;51.340;12.326;2022-08-21T04:42:53;18.30;99.90
15997;DHT22;8103;51.340;12.326;2022-08-21T04:45:29;18.30;99.90
15997;DHT22;8103;51.340;12.326;2022-08-21T04:47:59;18.30;99.90
15997;DHT22;8103;51.340;12.326;2022-08-21T04:50:37;18.30;99.90
15997;DHT22;8103;51.340;12.326;2022-08-21T04:53:08;18.30;99.90
15997;DHT22;8103;51.340;12.326;2022-08-21T04:55:36;18.30;99.90
15997;DHT22;8103;51.340;12.326;2022-08-21T04:58:06;18.30;99.90
15997;DHT22;8103;51.340;12.326;2022-08-21T05:00:34;18.30;99.90
15997;DHT22;8103;51.340;12.326;2022-08-21T05:03:01;18.40;99.90
15997;DHT22;8103;51.340;12.326;2022-08-21T05:05:29;18.40;99.90
15997;DHT22;8103;51.340;12.326;2022-08-21T05:07:57;18.50;99.90
15997;DHT22;8103;51.340;12.326;2022-08-21T05:10:25;18.50;99.90
15997;DHT22;8103;51.340;12.326;2022-08-21T05:12:53;18.60;99.90
15997;DHT22;8103;51.340;12.326;2022-08-21T05:15:20;18.70;99.90
15997;DHT22;8103;51.340;12.326;2022-08-21T05:17:47;18.60;99.90
15997;DHT22;8103;51.340;12.326;2022-08-21T05:20:18;18.70;99.90
15997;DHT22;8103;51.340;12.326;2022-08-21T05:22:46;18.80;99.90
15997;DHT22;8103;51.340;12.326;2022-08-21T05:25:12;18.80;99.90
15997;DHT22;8103;51.340;12.326;2022-08-21T05:27:39;18.90;99.90
15997;DHT22;8103;51.340;12.326;2022-08-21T05:30:07;18.80;99.90
15997;DHT22;8103;51.340;12.326;2022-08-21T05:32:35;18.80;99.90
15997;DHT22;8103;51.340;12.326;2022-08-21T05:35:03;18.80;99.90
15997;DHT22;8103;51.340;12.326;2022-08-21T05:37:31;18.80;99.90
15997;DHT22;8103;51.340;12.326;2022-08-21T05:39:59;18.90;99.90
15997;DHT22;8103;51.340;12.326;2022-08-21T05:42:30;18.80;99.90
15997;DHT22;8103;51.340;12.326;2022-08-21T05:44:57;18.90;99.90
15997;DHT22;8103;51.340;12.326;2022-08-21T05:47:23;18.90;99.90
15997;DHT22;8103;51.340;12.326;2022-08-21T05:49:50;18.90;99.90
15997;DHT22;8103;51.340;12.326;2022-08-21T05:52:21;18.90;99.90
15997;DHT22;8103;51.340;12.326;2022-08-21T05:54:48;19.00;99.90
15997;DHT22;8103;51.340;12.326;2022-08-21T05:57:15;19.00;99.90
15997;DHT22;8103;51.340;12.326;2022-08-21T05:59:42;19.00;99.90
15997;DHT22;8103;51.340;12.326;2022-08-21T06:02:09;19.00;99.90
15997;DHT22;8103;51.340;12.326;2022-08-21T06:04:37;19.20;99.90
15997;DHT22;8103;51.340;12.326;2022-08-21T06:07:04;19.10;99.90
15997;DHT22;8103;51.340;12.326;2022-08-21T06:09:31;19.20;99.90
15997;DHT22;8103;51.340;12.326;2022-08-21T06:12:02;19.20;99.90
15997;DHT22;8103;51.340;12.326;2022-08-21T06:14:29;19.30;99.90
15997;DHT22;8103;51.340;12.326;2022-08-21T06:17:02;19.30;99.90
15997;DHT22;8103;51.340;12.326;2022-08-21T06:19:29;19.30;99.90
15997;DHT22;8103;51.340;12.326;2022-08-21T06:21:56;19.30;99.90
15997;DHT22;8103;51.340;12.326;2022-08-21T06:24:23;19.50;99.90
15997;DHT22;8103;51.340;12.326;2022-08-21T06:26:51;19.30;99.90
15997;DHT22;8103;51.340;12.326;2022-08-21T06:29:18;19.20;99.90
15997;DHT22;8103;51.340;12.326;2022-08-21T06:31:48;19.30;99.90
15997;DHT22;8103;51.340;12.326;2022-08-21T06:34:15;19.30;99.90
15997;DHT22;8103;51.340;12.326;2022-08-21T06:36:42;19.30;99.90
15997;DHT22;8103;51.340;12.326;2022-08-21T06:39:09;19.30;99.90
15997;DHT22;8103;51.340;12.326;2022-08-21T06:41:42;19.30;99.90
15997;DHT22;8103;51.340;12.326;2022-08-21T06:44:09;19.30;99.90
15997;DHT22;8103;51.340;12.326;2022-08-21T06:46:37;19.40;99.90
15997;DHT22;8103;51.340;12.326;2022-08-21T06:49:04;19.50;99.90
15997;DHT22;8103;51.340;12.326;2022-08-21T06:51:31;19.50;99.90
15997;DHT22;8103;51.340;12.326;2022-08-21T06:53:58;19.50;99.90
15997;DHT22;8103;51.340;12.326;2022-08-21T06:56:25;19.60;99.90
15997;DHT22;8103;51.340;12.326;2022-08-21T06:58:51;19.70;99.90
15997;DHT22;8103;51.340;12.326;2022-08-21T07:01:24;19.80;99.90
15997;DHT22;8103;51.340;12.326;2022-08-21T07:03:52;19.80;99.90
15997;DHT22;8103;51.340;12.326;2022-08-21T07:06:19;19.90;99.90
15997;DHT22;8103;51.340;12.326;2022-08-21T07:08:46;20.00;99.90
15997;DHT22;8103;51.340;12.326;2022-08-21T07:11:20;20.00;99.90
15997;DHT22;8103;51.340;12.326;2022-08-21T07:13:48;20.20;99.90
15997;DHT22;8103;51.340;12.326;2022-08-21T07:16:15;20.40;99.90
15997;DHT22;8103;51.340;12.326;2022-08-21T07:18:42;20.70;99.90
15997;DHT22;8103;51.340;12.326;2022-08-21T07:21:09;20.80;99.90
15997;DHT22;8103;51.340;12.326;2022-08-21T07:23:45;20.90;99.90
15997;DHT22;8103;51.340;12.326;2022-08-21T07:26:13;21.20;99.90
15997;DHT22;8103;51.340;12.326;2022-08-21T07:28:40;21.30;99.90
15997;DHT22;8103;51.340;12.326;2022-08-21T07:31:09;21.40;99.90
15997;DHT22;8103;51.340;12.326;2022-08-21T07:33:36;21.50;99.90
15997;DHT22;8103;51.340;12.326;2022-08-21T07:36:03;21.60;99.90
15997;DHT22;8103;51.340;12.326;2022-08-21T07:38:30;21.70;99.90
15997;DHT22;8103;51.340;12.326;2022-08-21T07:40:59;21.80;99.90
15997;DHT22;8103;51.340;12.326;2022-08-21T07:43:28;21.90;99.90
15997;DHT22;8103;51.340;12.326;2022-08-21T07:45:54;22.00;99.90
15997;DHT22;8103;51.340;12.326;2022-08-21T07:48:22;22.00;99.90
15997;DHT22;8103;51.340;12.326;2022-08-21T07:50:49;21.90;99.90
15997;DHT22;8103;51.340;12.326;2022-08-21T07:53:18;21.90;99.90
15997;DHT22;8103;51.340;12.326;2022-08-21T07:55:45;21.90;99.90
15997;DHT22;8103;51.340;12.326;2022-08-21T07:58:12;21.90;99.90
15997;DHT22;8103;51.340;12.326;2022-08-21T08:00:39;21.90;99.90
15997;DHT22;8103;51.340;12.326;2022-08-21T08:03:07;21.90;99.90
15997;DHT22;8103;51.340;12.326;2022-08-21T08:05:34;21.90;99.90
15997;DHT22;8103;51.340;12.326;2022-08-21T08:08:03;22.00;99.90
15997;DHT22;8103;51.340;12.326;2022-08-21T08:10:30;22.10;99.90
15997;DHT22;8103;51.340;12.326;2022-08-21T08:12:57;22.00;99.90
15997;DHT22;8103;51.340;12.326;2022-08-21T08:15:26;22.00;99.90
15997;DHT22;8103;51.340;12.326;2022-08-21T08:17:54;22.00;99.90
15997;DHT22;8103;51.340;12.326;2022-08-21T08:20:21;22.00;99.90
15997;DHT22;8103;51.340;12.326;2022-08-21T08:22:49;22.00;99.90
15997;DHT22;8103;51.340;12.326;2022-08-21T08:25:19;22.00;99.90
15997;DHT22;8103;51.340;12.326;2022-08-21T08:27:46;22.10;99.90
15997;DHT22;8103;51.340;12.326;2022-08-21T08:30:15;22.20;99.90
15997;DHT22;8103;51.340;12.326;2022-08-21T08:32:42;22.30;99.90
15997;DHT22;8103;51.340;12.326;2022-08-21T08:35:09;22.40;99.90
15997;DHT22;8103;51.340;12.326;2022-08-21T08:37:38;22.50;99.90
15997;DHT22;8103;51.340;12.326;2022-08-21T08:40:32;22.80;99.90
15997;DHT22;8103;51.340;12.326;2022-08-21T08:42:57;22.90;99.90
15997;DHT22;8103;51.340;12.326;2022-08-21T08:45:25;23.00;99.90
15997;DHT22;8103;51.340;12.326;2022-08-21T08:47:57;23.20;99.90
15997;DHT22;8103;51.340;12.326;2022-08-21T08:50:49;23.40;99.90
15997;DHT22;8103;51.340;12.326;2022-08-21T08:54:07;23.80;99.90
15997;DHT22;8103;51.340;12.326;2022-08-21T08:56:15;24.10;99.90
15997;DHT22;8103;51.340;12.326;2022-08-21T08:58:43;24.40;99.90
15997;DHT22;8103;51.340;12.326;2022-08-21T09:01:16;24.70;99.90
15997;DHT22;8103;51.340;12.326;2022-08-21T09:03:45;25.20;99.90
15997;DHT22;8103;51.340;12.326;2022-08-21T09:09:48;26.30;94.90
15997;DHT22;8103;51.340;12.326;2022-08-21T09:17:36;26.60;91.50
15997;DHT22;8103;51.340;12.326;2022-08-21T09:20:19;26.60;92.10
15997;DHT22;8103;51.340;12.326;2022-08-21T09:25:38;28.00;87.70
15997;DHT22;8103;51.340;12.326;2022-08-21T09:28:11;28.50;85.70
15997;DHT22;8103;51.340;12.326;2022-08-21T09:30:40;28.60;84.90
15997;DHT22;8103;51.340;12.326;2022-08-21T09:33:09;28.20;81.80
15997;DHT22;8103;51.340;12.326;2022-08-21T09:35:52;27.80;81.90
15997;DHT22;8103;51.340;12.326;2022-08-21T09:38:38;27.70;81.60
15997;DHT22;8103;51.340;12.326;2022-08-21T09:41:15;27.80;82.00
15997;DHT22;8103;51.340;12.326;2022-08-21T09:43:54;28.10;80.90
15997;DHT22;8103;51.340;12.326;2022-08-21T09:46:23;28.70;78.40
15997;DHT22;8103;51.340;12.326;2022-08-21T09:48:56;29.30;77.30
15997;DHT22;8103;51.340;12.326;2022-08-21T09:51:27;30.00;74.10
15997;DHT22;8103;51.340;12.326;2022-08-21T09:54:14;30.40;71.80
15997;DHT22;8103;51.340;12.326;2022-08-21T09:57:00;30.70;70.80
15997;DHT22;8103;51.340;12.326;2022-08-21T09:59:47;30.80;70.40
15997;DHT22;8103;51.340;12.326;2022-08-21T10:02:29;31.20;68.90
15997;DHT22;8103;51.340;12.326;2022-08-21T10:05:08;31.70;65.30
15997;DHT22;8103;51.340;12.326;2022-08-21T10:07:41;32.10;64.60
15997;DHT22;8103;51.340;12.326;2022-08-21T10:10:28;32.80;55.40
15997;DHT22;8103;51.340;12.326;2022-08-21T10:15:57;33.80;49.80
15997;DHT22;8103;51.340;12.326;2022-08-21T10:18:48;33.70;49.30
15997;DHT22;8103;51.340;12.326;2022-08-21T10:27:28;33.90;47.20
15997;DHT22;8103;51.340;12.326;2022-08-21T10:30:06;34.40;46.20
15997;DHT22;8103;51.340;12.326;2022-08-21T10:32:58;34.50;45.80
15997;DHT22;8103;51.340;12.326;2022-08-21T10:35:29;35.40;44.90
15997;DHT22;8103;51.340;12.326;2022-08-21T10:41:31;38.40;33.70
15997;DHT22;8103;51.340;12.326;2022-08-21T10:47:02;39.60;30.00
15997;DHT22;8103;51.340;12.326;2022-08-21T10:49:44;39.60;30.00
15997;DHT22;8103;51.340;12.326;2022-08-21T10:55:21;40.20;29.90
15997;DHT22;8103;51.340;12.326;2022-08-21T10:58:09;41.10;29.20
15997;DHT22;8103;51.340;12.326;2022-08-21T11:00:51;42.10;27.50
15997;DHT22;8103;51.340;12.326;2022-08-21T11:03:32;42.80;27.30
15997;DHT22;8103;51.340;12.326;2022-08-21T11:06:13;43.50;26.40
15997;DHT22;8103;51.340;12.326;2022-08-21T11:08:43;43.90;26.50
15997;DHT22;8103;51.340;12.326;2022-08-21T11:11:24;44.40;25.70
15997;DHT22;8103;51.340;12.326;2022-08-21T11:14:25;45.00;25.20
15997;DHT22;8103;51.340;12.326;2022-08-21T11:17:00;45.20;24.60
15997;DHT22;8103;51.340;12.326;2022-08-21T11:19:48;44.70;24.70
15997;DHT22;8103;51.340;12.326;2022-08-21T11:22:46;42.80;26.30
15997;DHT22;8103;51.340;12.326;2022-08-21T11:25:27;41.00;27.60
15997;DHT22;8103;51.340;12.326;2022-08-21T11:30:42;37.80;30.40
15997;DHT22;8103;51.340;12.326;2022-08-21T11:35:46;35.70;33.00
15997;DHT22;8103;51.340;12.326;2022-08-21T11:38:34;36.30;32.50
15997;DHT22;8103;51.340;12.326;2022-08-21T11:41:25;36.90;31.80
15997;DHT22;8103;51.340;12.326;2022-08-21T11:46:36;34.80;33.00
15997;DHT22;8103;51.340;12.326;2022-08-21T11:52:26;32.40;37.10
15997;DHT22;8103;51.340;12.326;2022-08-21T11:55:04;33.90;36.40
15997;DHT22;8103;51.340;12.326;2022-08-21T11:57:40;36.70;33.10
15997;DHT22;8103;51.340;12.326;2022-08-21T12:00:33;39.80;29.20
15997;DHT22;8103;51.340;12.326;2022-08-21T12:03:16;42.20;27.50
15997;DHT22;8103;51.340;12.326;2022-08-21T12:06:06;42.60;26.20
15997;DHT22;8103;51.340;12.326;2022-08-21T12:08:36;42.20;26.80
15997;DHT22;8103;51.340;12.326;2022-08-21T12:11:23;43.50;26.60
15997;DHT22;8103;51.340;12.326;2022-08-21T12:14:17;45.50;25.00
15997;DHT22;8103;51.340;12.326;2022-08-21T12:16:46;47.30;23.90
15997;DHT22;8103;51.340;12.326;2022-08-21T12:19:29;48.80;22.80
15997;DHT22;8103;51.340;12.326;2022-08-21T12:26:59;51.20;19.90
15997;DHT22;8103;51.340;12.326;2022-08-21T12:29:32;50.00;20.30
15997;DHT22;8103;51.340;12.326;2022-08-21T12:32:03;47.70;22.00
15997;DHT22;8103;51.340;12.326;2022-08-21T12:34:52;45.00;23.70
15997;DHT22;8103;51.340;12.326;2022-08-21T12:37:43;44.00;24.90
15997;DHT22;8103;51.340;12.326;2022-08-21T12:42:47;41.90;25.90
15997;DHT22;8103;51.340;12.326;2022-08-21T12:45:46;41.00;27.30
15997;DHT22;8103;51.340;12.326;2022-08-21T12:51:26;40.20;27.60
15997;DHT22;8103;51.340;12.326;2022-08-21T12:53:57;38.70;29.00
15997;DHT22;8103;51.340;12.326;2022-08-21T12:56:29;37.40;30.10
15997;DHT22;8103;51.340;12.326;2022-08-21T12:59:11;36.00;31.40
15997;DHT22;8103;51.340;12.326;2022-08-21T13:01:45;34.60;33.80
15997;DHT22;8103;51.340;12.326;2022-08-21T13:04:18;33.60;35.30
15997;DHT22;8103;51.340;12.326;2022-08-21T13:06:50;32.80;36.90
15997;DHT22;8103;51.340;12.326;2022-08-21T13:09:22;32.20;37.80
15997;DHT22;8103;51.340;12.326;2022-08-21T13:11:50;31.80;38.70
15997;DHT22;8103;51.340;12.326;2022-08-21T13:14:39;31.80;39.40
15997;DHT22;8103;51.340;12.326;2022-08-21T13:17:11;31.70;38.90
15997;DHT22;8103;51.340;12.326;2022-08-21T13:19:38;31.50;39.20
15997;DHT22;8103;51.340;12.326;2022-08-21T13:22:12;31.40;39.50
15997;DHT22;8103;51.340;12.326;2022-08-21T13:24:56;32.50;38.90
15997;DHT22;8103;51.340;12.326;2022-08-21T13:27:28;35.50;34.90
15997;DHT22;8103;51.340;12.326;2022-08-21T13:30:20;36.60;32.30
15997;DHT22;8103;51.340;12.326;2022-08-21T13:32:54;38.00;31.10
15997;DHT22;8103;51.340;12.326;2022-08-21T13:35:47;40.60;28.50
15997;DHT22;8103;51.340;12.326;2022-08-21T13:38:11;43.10;26.40
15997;DHT22;8103;51.340;12.326;2022-08-21T13:40:50;45.50;25.30
15997;DHT22;8103;51.340;12.326;2022-08-21T13:43:21;46.80;23.60
15997;DHT22;8103;51.340;12.326;2022-08-21T13:45:51;47.60;22.50
15997;DHT22;8103;51.340;12.326;2022-08-21T13:48:19;46.80;22.50
15997;DHT22;8103;51.340;12.326;2022-08-21T13:50:46;44.60;23.60
15997;DHT22;8103;51.340;12.326;2022-08-21T13:53:36;42.40;25.60
15997;DHT22;8103;51.340;12.326;2022-08-21T13:56:04;41.90;26.70
15997;DHT22;8103;51.340;12.326;2022-08-21T13:58:41;43.20;25.50
15997;DHT22;8103;51.340;12.326;2022-08-21T14:01:23;43.80;24.90
15997;DHT22;8103;51.340;12.326;2022-08-21T14:03:53;42.60;25.20
15997;DHT22;8103;51.340;12.326;2022-08-21T14:06:26;40.80;26.70
15997;DHT22;8103;51.340;12.326;2022-08-21T14:08:56;38.90;28.30
15997;DHT22;8103;51.340;12.326;2022-08-21T14:11:25;37.30;30.10
15997;DHT22;8103;51.340;12.326;2022-08-21T14:14:03;35.80;31.70
15997;DHT22;8103;51.340;12.326;2022-08-21T14:16:53;34.70;33.10
15997;DHT22;8103;51.340;12.326;2022-08-21T14:19:23;33.80;34.40
15997;DHT22;8103;51.340;12.326;2022-08-21T14:21:51;33.20;35.30
15997;DHT22;8103;51.340;12.326;2022-08-21T14:24:29;32.80;36.60
15997;DHT22;8103;51.340;12.326;2022-08-21T14:27:02;33.00;37.20
15997;DHT22;8103;51.340;12.326;2022-08-21T14:29:37;33.30;36.20
15997;DHT22;8103;51.340;12.326;2022-08-21T14:32:18;33.00;36.50
15997;DHT22;8103;51.340;12.326;2022-08-21T14:34:47;32.50;37.40
15997;DHT22;8103;51.340;12.326;2022-08-21T14:37:14;32.60;37.80
15997;DHT22;8103;51.340;12.326;2022-08-21T14:39:41;33.50;36.80
15997;DHT22;8103;51.340;12.326;2022-08-21T14:42:10;35.30;34.50
15997;DHT22;8103;51.340;12.326;2022-08-21T14:44:38;37.10;31.50
15997;DHT22;8103;51.340;12.326;2022-08-21T14:47:05;39.20;29.60
15997;DHT22;8103;51.340;12.326;2022-08-21T14:49:31;41.20;27.70
15997;DHT22;8103;51.340;12.326;2022-08-21T14:51:58;41.90;26.60
15997;DHT22;8103;51.340;12.326;2022-08-21T14:54:30;41.00;26.60
15997;DHT22;8103;51.340;12.326;2022-08-21T14:57:09;39.20;27.80
15997;DHT22;8103;51.340;12.326;2022-08-21T14:59:37;37.30;29.50
15997;DHT22;8103;51.340;12.326;2022-08-21T15:02:05;35.40;31.80
15997;DHT22;8103;51.340;12.326;2022-08-21T15:04:33;34.00;33.60
15997;DHT22;8103;51.340;12.326;2022-08-21T15:07:01;33.00;35.00
15997;DHT22;8103;51.340;12.326;2022-08-21T15:09:28;32.00;36.40
15997;DHT22;8103;51.340;12.326;2022-08-21T15:11:57;31.00;38.00
15997;DHT22;8103;51.340;12.326;2022-08-21T15:14:27;30.30;39.20
15997;DHT22;8103;51.340;12.326;2022-08-21T15:16:54;29.90;40.20
15997;DHT22;8103;51.340;12.326;2022-08-21T15:19:21;29.40;41.60
15997;DHT22;8103;51.340;12.326;2022-08-21T15:21:48;28.90;42.60
15997;DHT22;8103;51.340;12.326;2022-08-21T15:24:15;28.50;42.90
15997;DHT22;8103;51.340;12.326;2022-08-21T15:26:43;28.10;43.40
15997;DHT22;8103;51.340;12.326;2022-08-21T15:29:10;28.00;43.90
15997;DHT22;8103;51.340;12.326;2022-08-21T15:32:02;27.70;44.50
15997;DHT22;8103;51.340;12.326;2022-08-21T15:34:41;27.50;45.00
15997;DHT22;8103;51.340;12.326;2022-08-21T15:37:08;27.30;46.20
15997;DHT22;8103;51.340;12.326;2022-08-21T15:39:35;27.20;45.90
15997;DHT22;8103;51.340;12.326;2022-08-21T15:42:03;27.10;46.40
15997;DHT22;8103;51.340;12.326;2022-08-21T15:44:37;27.00;46.20
15997;DHT22;8103;51.340;12.326;2022-08-21T15:47:05;27.10;46.40
15997;DHT22;8103;51.340;12.326;2022-08-21T15:49:32;26.90;47.00
15997;DHT22;8103;51.340;12.326;2022-08-21T15:51:58;26.80;46.90
15997;DHT22;8103;51.340;12.326;2022-08-21T15:54:25;26.70;47.10
15997;DHT22;8103;51.340;12.326;2022-08-21T15:56:52;26.70;47.60
15997;DHT22;8103;51.340;12.326;2022-08-21T15:59:21;26.70;48.50
15997;DHT22;8103;51.340;12.326;2022-08-21T16:01:50;26.70;48.90
15997;DHT22;8103;51.340;12.326;2022-08-21T16:04:26;26.70;48.80
15997;DHT22;8103;51.340;12.326;2022-08-21T16:06:54;26.60;48.80
15997;DHT22;8103;51.340;12.326;2022-08-21T16:09:27;26.60;49.00
15997;DHT22;8103;51.340;12.326;2022-08-21T16:11:54;26.60;49.10
15997;DHT22;8103;51.340;12.326;2022-08-21T16:14:21;26.60;49.40
15997;DHT22;8103;51.340;12.326;2022-08-21T16:16:47;26.60;49.60
15997;DHT22;8103;51.340;12.326;2022-08-21T16:19:14;26.50;49.90
15997;DHT22;8103;51.340;12.326;2022-08-21T16:21:41;26.40;50.00
15997;DHT22;8103;51.340;12.326;2022-08-21T16:24:08;26.40;49.70
15997;DHT22;8103;51.340;12.326;2022-08-21T16:26:35;26.20;49.60
15997;DHT22;8103;51.340;12.326;2022-08-21T16:29:03;26.20;49.90
15997;DHT22;8103;51.340;12.326;2022-08-21T16:31:31;26.20;50.30
15997;DHT22;8103;51.340;12.326;2022-08-21T16:33:59;26.10;50.50
15997;DHT22;8103;51.340;12.326;2022-08-21T16:36:26;26.00;50.40
15997;DHT22;8103;51.340;12.326;2022-08-21T16:38:54;26.00;50.50
15997;DHT22;8103;51.340;12.326;2022-08-21T16:41:22;25.90;50.70
15997;DHT22;8103;51.340;12.326;2022-08-21T16:43:50;25.90;51.30
15997;DHT22;8103;51.340;12.326;2022-08-21T16:46:19;25.90;51.70